OTHH

Hamad International Airport

Airport
ICAO code
OTHH
IATA Code
DOH
Summary
ICAO Region
MID
ICAO Territory
Location

Doha, Qatar

Serving
Doha
Elevation
13 ft
Coordinates
25° 15' 38" N , 51° 36' 50" E
KCC
Metar
Observation
OTHH 071900Z 03003KT CAVOK 31/26 Q1007 NOSIG
Station
Doha International Airport
Date/Time
2022-10-07 19:00:00
Wind direction
30°
Wind speed
03 kts
Lowest cloud amount
clouds and visibility OK
Temperature
31°C
Dew point
26°C
Humidity
74%
QNH
1007 hPa
Weather condition
n/a

International airport serving Qatar.

Climatology

Hot Desert Climate (Köppen climate classification BWh) - Hot desert climates are typically found in the subtropics where there is unbroken sunshine for the whole year due to the stable descending air and high pressure, little or no precipitation. Maximum temperatures of 40°C to 45°C are not uncommon, particularly during the warmer months of the year.

Airport map

Aerial View

SKYbrary Partners:

Safety knowledge contributed by: